Time;durP1;ratioP1;P1;durP2;ratioP2;P2;SDS_P1;SDS_P2;PMS_P1;PMS_P2;Temp;Humidity;BMP_temperature;BMP_pressure;BME280_temperature;BME280_humidity;BME280_pressure;Samples;Min_cycle;Max_cycle;Signal;HPM_P1;HPM_P2
2023/01/12 00:00:35;;;;;;;19.67;11.20;;;;;;;6.48;100.00;100236.63;5049479;28;20028;-27
2023/01/12 00:03:01;;;;;;;16.55;9.75;;;;;;;6.55;100.00;100237.53;5049077;28;20182;-27
2023/01/12 00:05:26;;;;;;;19.23;11.15;;;;;;;6.53;100.00;100239.56;5048405;28;20111;-27
2023/01/12 00:07:51;;;;;;;18.55;11.00;;;;;;;6.58;100.00;100248.59;5049252;28;20029;-27
2023/01/12 00:10:17;;;;;;;16.45;10.38;;;;;;;6.57;100.00;100243.47;5048869;28;20021;-27
2023/01/12 00:12:42;;;;;;;17.13;9.95;;;;;;;6.46;100.00;100228.91;5047929;28;20039;-27
2023/01/12 00:15:08;;;;;;;19.15;10.55;;;;;;;6.64;100.00;100231.13;5048903;28;20032;-28
2023/01/12 00:17:33;;;;;;;18.52;10.32;;;;;;;6.77;100.00;100241.03;5049382;28;20037;-29
2023/01/12 00:19:59;;;;;;;17.55;10.18;;;;;;;6.76;100.00;100240.22;5048683;28;20065;-32
2023/01/12 00:22:24;;;;;;;15.93;10.75;;;;;;;6.73;100.00;100235.28;5047930;28;20025;-28
2023/01/12 00:24:51;;;;;;;18.98;10.52;;;;;;;6.68;100.00;100250.94;5047454;28;20032;-29
2023/01/12 00:27:20;;;;;;;15.77;10.05;;;;;;;6.76;100.00;100245.50;5049070;28;20064;-27
2023/01/12 00:29:45;;;;;;;14.98;9.90;;;;;;;6.67;100.00;100220.13;5047531;28;20402;-27
2023/01/12 00:32:17;;;;;;;16.58;10.07;;;;;;;6.69;100.00;100218.09;5048930;28;20040;-28
2023/01/12 00:34:43;;;;;;;15.30;9.80;;;;;;;6.74;100.00;100234.28;5048740;28;20029;-31
2023/01/12 00:37:10;;;;;;;16.40;9.65;;;;;;;6.70;100.00;100209.16;5049080;28;20025;-28
2023/01/12 00:39:35;;;;;;;14.68;9.63;;;;;;;6.95;100.00;100248.53;5047694;28;20039;-28
2023/01/12 00:47:29;;;;;;;15.45;10.02;;;;;;;6.77;100.00;100238.38;5048723;28;20601;-27
2023/01/12 00:49:55;;;;;;;17.52;9.73;;;;;;;6.90;100.00;100256.22;5048698;28;20144;-26
2023/01/12 00:52:21;;;;;;;17.02;10.55;;;;;;;6.82;100.00;100250.06;5048583;28;20037;-32
2023/01/12 00:54:46;;;;;;;60.65;41.05;;;;;;;6.80;100.00;100245.94;5048877;28;20037;-28
2023/01/12 00:57:13;;;;;;;174.15;100.68;;;;;;;6.70;100.00;100230.38;5048473;28;20089;-30
2023/01/12 00:59:39;;;;;;;131.93;74.15;;;;;;;6.72;100.00;100254.84;5047120;28;20557;-28
2023/01/12 01:02:05;;;;;;;100.00;60.92;;;;;;;6.81;100.00;100251.03;5047076;28;20095;-26
2023/01/12 01:04:33;;;;;;;141.65;83.82;;;;;;;6.53;100.00;100221.81;5048734;28;20780;-32
2023/01/12 01:06:58;;;;;;;65.95;42.30;;;;;;;6.72;100.00;100259.31;5047352;28;20032;-28
2023/01/12 01:09:24;;;;;;;52.53;33.58;;;;;;;6.68;100.00;100256.22;5047086;28;20475;-28
2023/01/12 01:11:49;;;;;;;36.00;23.65;;;;;;;6.64;100.00;100254.97;5048687;28;20108;-28
2023/01/12 01:14:15;;;;;;;24.65;15.55;;;;;;;6.78;100.00;100259.41;5048234;28;20068;-26
2023/01/12 01:16:40;;;;;;;19.08;12.73;;;;;;;6.70;100.00;100246.25;5050463;28;20025;-30
2023/01/12 01:19:06;;;;;;;19.80;12.32;;;;;;;6.68;100.00;100250.09;5051989;28;20029;-28
2023/01/12 01:21:34;;;;;;;19.17;11.18;;;;;;;6.56;100.00;100233.88;5052057;28;20021;-27
2023/01/12 01:24:00;;;;;;;20.35;12.05;;;;;;;6.74;100.00;100263.44;5051682;28;20040;-28
2023/01/12 01:26:25;;;;;;;21.05;12.20;;;;;;;6.76;100.00;100263.22;5051974;28;20049;-27
2023/01/12 01:28:51;;;;;;;19.00;11.80;;;;;;;6.75;100.00;100254.44;5050411;28;20029;-27
2023/01/12 01:31:22;;;;;;;19.88;11.65;;;;;;;6.73;100.00;100261.78;5050738;28;20025;-27
2023/01/12 01:33:48;;;;;;;18.20;10.93;;;;;;;6.74;100.00;100267.88;5052215;28;20047;-28
2023/01/12 01:36:15;;;;;;;15.27;10.00;;;;;;;6.52;100.00;100253.78;5051504;28;20032;-28
2023/01/12 01:38:43;;;;;;;14.98;9.82;;;;;;;6.62;100.00;100267.59;5051631;28;20029;-27
2023/01/12 01:41:16;;;;;;;16.40;10.52;;;;;;;6.88;100.00;100268.84;5051403;28;20040;-29
2023/01/12 01:43:56;;;;;;;17.58;10.70;;;;;;;6.89;100.00;100257.25;5051646;28;20405;-28
2023/01/12 01:46:25;;;;;;;18.17;10.88;;;;;;;6.82;100.00;100273.06;5049978;28;20631;-27
2023/01/12 01:48:50;;;;;;;;;;;;;;;6.67;100.00;100265.19;5051950;28;20033;-29
2023/01/12 01:51:16;;;;;;;16.15;9.80;;;;;;;6.71;100.00;100269.09;5051445;28;19916;-27
2023/01/12 01:53:44;;;;;;;15.93;10.02;;;;;;;6.62;100.00;100249.03;5051268;28;20108;-30
2023/01/12 01:56:12;;;;;;;;;;;;;;;6.77;100.00;100256.91;5052009;28;20400;-27
2023/01/12 01:58:48;;;;;;;16.60;10.48;;;;;;;6.64;100.00;100252.31;5052035;28;19913;-28
2023/01/12 02:01:13;;;;;;;14.40;9.82;;;;;;;6.54;100.00;100242.03;5050900;28;20037;-27
2023/01/12 02:03:39;;;;;;;16.77;10.15;;;;;;;6.70;100.00;100256.88;5051511;28;20458;-28
2023/01/12 02:06:07;;;;;;;17.85;10.45;;;;;;;6.55;100.00;100238.34;5050724;28;20444;-28
2023/01/12 02:08:52;;;;;;;17.95;11.15;;;;;;;6.78;100.00;100263.84;5049595;28;20029;-31
2023/01/12 02:17:23;;;;;;;17.27;11.30;;;;;;;6.78;100.00;100254.09;5051085;28;20121;-26
2023/01/12 02:19:57;;;;;;;13.98;9.32;;;;;;;6.61;100.00;100260.63;5048249;28;20037;-30
2023/01/12 02:22:50;;;;;;;16.83;9.90;;;;;;;6.77;100.00;100265.69;5049415;28;20057;-28
2023/01/12 02:25:53;;;;;;;15.43;9.82;;;;;;;6.65;100.00;100259.25;5049310;28;20057;-27
2023/01/12 02:28:51;;;;;;;15.02;10.32;;;;;;;6.65;100.00;100259.25;5049791;28;20033;-27
2023/01/12 02:31:35;;;;;;;15.95;9.35;;;;;;;6.77;100.00;100259.56;5050540;28;20469;-28
2023/01/12 02:34:09;;;;;;;18.52;10.73;;;;;;;6.65;100.00;100259.25;5050630;28;20567;-28
2023/01/12 02:36:34;;;;;;;15.27;9.88;;;;;;;6.65;100.00;100269.84;5049425;28;20064;-29
2023/01/12 02:39:05;;;;;;;14.90;9.45;;;;;;;6.44;100.00;100252.91;5050663;28;20067;-27
2023/01/12 02:44:34;;;;;;;16.80;11.07;;;;;;;6.60;100.00;100259.81;5050349;28;20036;-26
2023/01/12 02:47:06;;;;;;;16.60;10.82;;;;;;;6.49;100.00;100252.34;5049059;28;20033;-32
2023/01/12 02:49:37;;;;;;;15.65;9.60;;;;;;;6.62;100.00;100260.44;5050344;28;20029;-27
2023/01/12 02:52:09;;;;;;;15.60;10.07;;;;;;;6.54;100.00;100249.97;5050001;28;20474;-27
2023/01/12 02:54:37;;;;;;;16.73;9.63;;;;;;;6.67;100.00;100251.94;5049255;28;20032;-28
2023/01/12 02:57:07;;;;;;;15.85;9.75;;;;;;;6.74;100.00;100247.53;5050678;28;20025;-26
2023/01/12 02:59:38;;;;;;;17.65;10.20;;;;;;;6.87;100.00;100253.97;5050435;28;20175;-32
2023/01/12 03:02:15;;;;;;;15.38;9.90;;;;;;;6.64;100.00;100260.28;5049841;28;20029;-28
2023/01/12 03:04:41;;;;;;;14.73;9.43;;;;;;;6.54;100.00;100257.06;5050096;28;20044;-27
2023/01/12 03:07:32;;;;;;;16.25;10.00;;;;;;;6.64;100.00;100258.44;5050036;28;20037;-26
2023/01/12 03:10:25;;;;;;;15.45;9.98;;;;;;;6.61;100.00;100252.69;5050041;28;20067;-27
2023/01/12 03:12:53;;;;;;;17.10;10.13;;;;;;;6.73;100.00;100253.81;5048554;28;20436;-26
2023/01/12 03:15:23;;;;;;;15.50;9.57;;;;;;;6.54;100.00;100241.19;5050006;28;20029;-27
2023/01/12 03:18:02;;;;;;;16.77;10.05;;;;;;;6.51;100.00;100220.38;5050025;28;20037;-26
2023/01/12 03:20:32;;;;;;;14.48;8.90;;;;;;;6.73;100.00;100253.81;5049878;28;20037;-27
2023/01/12 03:23:03;;;;;;;15.77;10.35;;;;;;;6.72;100.00;100244.25;5049942;28;20029;-27
2023/01/12 03:25:32;;;;;;;16.13;9.55;;;;;;;6.72;100.00;100249.53;5049161;28;20060;-26
2023/01/12 03:28:02;;;;;;;16.90;9.25;;;;;;;6.53;100.00;100256.25;5048317;28;20128;-27
2023/01/12 03:30:35;;;;;;;15.70;9.18;;;;;;;6.50;100.00;100264.59;5049989;28;20120;-27
2023/01/12 03:33:02;;;;;;;16.00;8.88;;;;;;;6.47;100.00;100262.31;5049488;28;20102;-28
2023/01/12 03:35:34;;;;;;;15.63;9.60;;;;;;;6.51;100.00;100244.22;5049780;28;20036;-26
2023/01/12 03:38:10;;;;;;;14.63;9.20;;;;;;;6.53;100.00;100266.06;5049125;28;20296;-28
2023/01/12 03:40:41;;;;;;;14.05;8.90;;;;;;;6.50;100.00;100243.41;5049639;28;20072;-27
2023/01/12 03:43:37;;;;;;;14.32;9.05;;;;;;;6.48;100.00;100268.44;5049864;28;20029;-28
2023/01/12 03:46:15;;;;;;;17.15;10.25;;;;;;;6.34;100.00;100270.13;5049283;28;20032;-28
2023/01/12 03:48:53;;;;;;;15.40;8.80;;;;;;;6.38;100.00;100280.16;5048394;28;20021;-29
2023/01/12 03:51:26;;;;;;;16.50;10.13;;;;;;;6.40;100.00;100278.13;5049531;28;20071;-29
2023/01/12 03:53:54;;;;;;;15.93;9.63;;;;;;;6.33;100.00;100271.13;5049267;28;20029;-28
2023/01/12 03:56:24;;;;;;;16.58;9.93;;;;;;;6.27;100.00;100266.56;5047804;28;20029;-31
2023/01/12 03:58:51;;;;;;;16.67;9.45;;;;;;;6.27;100.00;100267.38;5049107;28;20104;-29
2023/01/12 04:01:16;;;;;;;17.48;10.85;;;;;;;6.24;100.00;100273.06;5049254;28;20507;-27
2023/01/12 04:03:42;;;;;;;14.18;8.95;;;;;;;6.39;100.00;100287.06;5049217;28;20017;-26
2023/01/12 04:06:07;;;;;;;17.65;10.38;;;;;;;6.61;100.00;100295.09;5048835;28;20536;-30
2023/01/12 04:08:33;;;;;;;15.52;9.38;;;;;;;6.56;100.00;100289.50;5049139;28;20079;-28
2023/01/12 04:10:59;;;;;;;16.17;10.10;;;;;;;6.44;100.00;100290.00;5047560;28;20837;-27
2023/01/12 04:13:24;;;;;;;14.45;9.68;;;;;;;6.38;100.00;100263.44;5049138;28;20029;-27
2023/01/12 04:15:50;;;;;;;16.60;10.25;;;;;;;6.53;100.00;100297.84;5049052;28;20033;-27
2023/01/12 04:18:16;;;;;;;13.18;8.80;;;;;;;6.55;100.00;100285.22;5049068;28;20029;-27
2023/01/12 04:20:41;;;;;;;15.93;10.00;;;;;;;6.60;100.00;100293.47;5048945;28;20045;-27
2023/01/12 04:23:06;;;;;;;13.95;8.48;;;;;;;6.53;100.00;100274.00;5047841;28;20017;-28
2023/01/12 04:25:32;;;;;;;15.38;8.57;;;;;;;6.65;100.00;100285.75;5048827;28;20049;-28
2023/01/12 04:28:02;;;;;;;15.63;9.23;;;;;;;6.53;100.00;100280.09;5047332;28;20482;-25
2023/01/12 04:30:30;;;;;;;14.20;8.80;;;;;;;6.63;100.00;100298.38;5047501;28;20025;-27
2023/01/12 04:32:56;;;;;;;13.20;8.18;;;;;;;6.62;100.00;100302.03;5048995;28;20048;-27
2023/01/12 04:35:23;;;;;;;14.15;8.77;;;;;;;6.48;100.00;100305.50;5049045;28;20033;-28
2023/01/12 04:37:49;;;;;;;15.70;8.77;;;;;;;6.52;100.00;100307.63;5048842;28;20112;-27
2023/01/12 04:40:16;;;;;;;13.88;8.38;;;;;;;6.41;100.00;100303.59;5047239;28;20115;-27
2023/01/12 04:43:07;;;;;;;14.38;7.47;;;;;;;6.48;100.00;100316.13;5047503;28;20485;-27
2023/01/12 04:45:35;;;;;;;12.65;7.65;;;;;;;6.41;100.00;100314.22;5049063;28;20029;-28
2023/01/12 04:48:06;;;;;;;12.82;7.60;;;;;;;6.60;100.00;100296.09;5048459;28;20087;-27
2023/01/12 04:50:32;;;;;;;13.77;8.15;;;;;;;6.52;100.00;100293.53;5048819;28;20037;-26
2023/01/12 04:53:00;;;;;;;16.73;10.10;;;;;;;6.61;100.00;100305.69;5052321;28;20052;-27
2023/01/12 04:55:25;;;;;;;54.08;30.02;;;;;;;6.26;100.00;100291.41;5051474;28;20044;-27
2023/01/12 04:57:50;;;;;;;56.40;33.28;;;;;;;6.41;100.00;100316.03;5052449;28;20033;-26
2023/01/12 05:00:16;;;;;;;32.25;20.00;;;;;;;6.38;100.00;100321.72;5050641;28;20032;-28
2023/01/12 05:02:42;;;;;;;35.58;20.55;;;;;;;6.49;100.00;100315.13;5052537;28;20028;-27
2023/01/12 05:05:08;;;;;;;22.30;12.05;;;;;;;6.49;100.00;100307.16;5052274;28;20484;-29
2023/01/12 05:07:33;;;;;;;13.55;8.70;;;;;;;6.46;100.00;100320.78;5052225;28;20060;-28
2023/01/12 05:12:43;;;;;;;12.25;7.75;;;;;;;6.54;100.00;100321.50;5052383;28;20463;-28
2023/01/12 05:15:09;;;;;;;19.00;9.90;;;;;;;6.44;100.00;100307.75;5052083;28;20040;-30
2023/01/12 05:17:34;;;;;;;12.80;7.93;;;;;;;6.34;100.00;100320.44;5052050;28;20567;-31
2023/01/12 05:19:59;;;;;;;13.38;7.85;;;;;;;6.24;100.00;100310.13;5051703;28;20032;-31
2023/01/12 05:22:25;;;;;;;13.85;7.47;;;;;;;6.11;100.00;100296.72;5051003;28;20033;-27
2023/01/12 05:24:50;;;;;;;15.75;8.05;;;;;;;6.34;100.00;100312.50;5050362;28;20532;-26
2023/01/12 05:27:16;;;;;;;15.95;8.52;;;;;;;6.40;100.00;100315.22;5050613;28;20118;-27
2023/01/12 05:29:42;;;;;;;16.20;8.55;;;;;;;6.45;100.00;100314.66;5051941;28;20027;-29
2023/01/12 05:32:07;;;;;;;22.48;11.60;;;;;;;6.33;100.00;100322.25;5051706;28;20119;-27
2023/01/12 05:34:33;;;;;;;16.73;10.02;;;;;;;6.30;100.00;100298.00;5051814;28;20025;-28
2023/01/12 05:36:58;;;;;;;15.55;9.77;;;;;;;6.32;100.00;100317.16;5051618;28;20036;-29
2023/01/12 05:39:23;;;;;;;15.13;8.75;;;;;;;6.38;100.00;100305.81;5052087;28;20033;-29
2023/01/12 05:44:33;;;;;;;15.82;8.75;;;;;;;6.44;100.00;100305.91;5051863;28;20032;-28
2023/01/12 05:46:58;;;;;;;12.02;7.38;;;;;;;6.46;100.00;100320.78;5050122;28;20025;-29
2023/01/12 05:49:23;;;;;;;13.68;7.45;;;;;;;6.36;100.00;100308.66;5051422;28;20088;-28
2023/01/12 05:51:49;;;;;;;15.05;8.68;;;;;;;6.38;100.00;100304.00;5050124;28;20032;-27
2023/01/12 05:54:14;;;;;;;22.35;15.68;;;;;;;6.48;100.00;100305.50;5051682;28;20075;-29
2023/01/12 05:56:40;;;;;;;22.77;14.52;;;;;;;6.38;100.00;100316.44;5051394;28;20055;-28
2023/01/12 05:59:05;;;;;;;53.00;29.55;;;;;;;6.10;100.00;100324.22;5051470;28;20508;-29
2023/01/12 06:01:31;;;;;;;60.08;35.63;;;;;;;6.14;100.00;100309.59;5048926;28;20123;-27
2023/01/12 06:03:59;;;;;;;46.35;29.67;;;;;;;6.15;100.00;100308.56;5050822;28;20082;-35
2023/01/12 06:06:26;;;;;;;41.08;26.98;;;;;;;6.20;100.00;100332.69;5051467;28;20044;-28
2023/01/12 06:08:53;;;;;;;45.47;26.37;;;;;;;6.29;100.00;100339.53;5051441;28;20094;-28
2023/01/12 06:14:04;;;;;;;34.63;22.23;;;;;;;6.13;100.00;100334.41;5051002;28;20413;-28
2023/01/12 06:16:29;;;;;;;32.03;19.63;;;;;;;6.17;100.00;100335.69;5049501;28;20021;-26
2023/01/12 06:18:55;;;;;;;45.05;22.00;;;;;;;6.27;100.00;100341.53;5051049;28;20033;-28
2023/01/12 06:21:22;;;;;;;48.95;24.05;;;;;;;6.22;100.00;100341.28;5049639;28;20033;-27
2023/01/12 06:23:47;;;;;;;37.28;20.50;;;;;;;6.34;100.00;100347.75;5049614;28;20036;-27
2023/01/12 06:26:13;;;;;;;36.72;20.83;;;;;;;6.48;100.00;100347.91;5048998;28;20049;-27
2023/01/12 06:28:39;;;;;;;31.40;17.80;;;;;;;6.42;100.00;100341.53;5049209;28;20409;-28
2023/01/12 06:31:07;;;;;;;30.95;17.38;;;;;;;6.35;100.00;100346.72;5050947;28;20079;-30
2023/01/12 06:33:32;;;;;;;51.67;25.07;;;;;;;6.23;100.00;100329.66;5051070;28;20029;-29
2023/01/12 06:35:58;;;;;;;56.50;25.58;;;;;;;6.38;100.00;100348.22;5050557;28;20025;-28
2023/01/12 06:38:26;;;;;;;65.57;27.70;;;;;;;6.45;100.00;100349.09;5050512;28;20112;-27
2023/01/12 06:40:51;;;;;;;58.10;26.42;;;;;;;6.51;100.00;100339.59;5049158;28;20033;-27
2023/01/12 06:43:18;;;;;;;43.90;20.85;;;;;;;6.59;100.00;100350.09;5050405;28;20401;-27
2023/01/12 06:45:44;;;;;;;48.45;23.02;;;;;;;6.68;100.00;100358.75;5049244;28;20029;-28
2023/01/12 06:48:09;;;;;;;56.15;23.10;;;;;;;6.62;100.00;100355.03;5048743;28;20747;-28
2023/01/12 06:50:35;;;;;;;49.60;23.17;;;;;;;6.62;100.00;100360.34;5050354;28;20044;-28
2023/01/12 06:53:02;;;;;;;46.58;22.45;;;;;;;6.71;100.00;100353.91;5049069;28;20037;-29
2023/01/12 06:55:28;;;;;;;56.53;26.48;;;;;;;6.94;100.00;100361.69;5050543;28;20028;-27
2023/01/12 06:57:53;;;;;;;44.47;23.40;;;;;;;6.83;100.00;100352.41;5049952;28;20504;-27
2023/01/12 07:00:19;;;;;;;39.45;21.80;;;;;;;6.78;100.00;100349.53;5049898;28;20103;-30
2023/01/12 07:02:48;;;;;;;29.05;17.05;;;;;;;6.64;100.00;100350.38;5050222;28;20043;-28
2023/01/12 07:05:14;;;;;;;26.90;16.42;;;;;;;6.78;100.00;100344.22;5050210;28;20017;-27
2023/01/12 07:07:39;;;;;;;27.70;17.00;;;;;;;6.81;100.00;100362.38;5048804;28;20083;-26
2023/01/12 07:10:05;;;;;;;22.27;12.93;;;;;;;6.73;100.00;100340.47;5048349;28;20550;-28
2023/01/12 07:12:31;;;;;;;19.67;12.35;;;;;;;6.73;100.00;100353.72;5048309;28;20044;-28
2023/01/12 07:14:58;;;;;;;19.10;11.68;;;;;;;6.73;100.00;100357.19;5048607;28;20123;-27
2023/01/12 07:17:23;;;;;;;19.88;12.45;;;;;;;6.88;100.00;100361.63;5050135;28;20017;-27
2023/01/12 07:19:49;;;;;;;19.05;10.63;;;;;;;6.92;100.00;100349.66;5049793;28;20595;-26
2023/01/12 07:22:14;;;;;;;19.00;10.98;;;;;;;6.77;100.00;100353.16;5049673;28;20040;-27
2023/01/12 07:24:40;;;;;;;17.98;11.63;;;;;;;6.93;100.00;100361.91;5049753;28;20037;-28
2023/01/12 07:27:05;;;;;;;19.13;11.43;;;;;;;6.90;100.00;100362.25;5047996;28;20535;-31
2023/01/12 07:29:30;;;;;;;21.55;12.98;;;;;;;6.88;100.00;100364.28;5048311;28;20496;-28
2023/01/12 07:31:56;;;;;;;23.60;12.85;;;;;;;6.93;100.00;100357.41;5050155;28;20560;-29
2023/01/12 07:34:22;;;;;;;23.73;11.90;;;;;;;7.14;100.00;100361.09;5049468;28;20082;-28
2023/01/12 07:36:48;;;;;;;19.67;11.25;;;;;;;7.22;100.00;100366.28;5049712;28;20033;-28
2023/01/12 07:39:14;;;;;;;17.80;9.57;;;;;;;7.26;100.00;100356.13;5048110;28;20031;-31
2023/01/12 07:44:24;;;;;;;15.45;9.40;;;;;;;7.35;100.00;100379.66;5049549;28;20040;-29
2023/01/12 07:46:49;;;;;;;15.13;8.43;;;;;;;7.37;100.00;100384.78;5049439;28;20028;-27
2023/01/12 07:49:15;;;;;;;12.70;8.30;;;;;;;7.43;100.00;100381.34;5049370;28;20409;-28
2023/01/12 07:51:40;;;;;;;12.45;7.70;;;;;;;7.43;100.00;100376.88;5049328;28;20672;-28
2023/01/12 07:54:05;;;;;;;12.13;7.22;;;;;;;7.38;100.00;100381.13;5047675;28;20052;-30
2023/01/12 07:56:31;;;;;;;11.38;7.25;;;;;;;7.36;100.00;100393.75;5049133;28;20025;-30
2023/01/12 07:58:56;;;;;;;14.73;7.65;;;;;;;7.31;100.00;100396.97;5049405;28;20021;-32
2023/01/12 08:01:22;;;;;;;18.85;11.32;;;;;;;9.58;99.44;100392.84;5049103;28;20528;-28
2023/01/12 08:03:47;;;;;;;15.35;8.65;;;;;;;9.41;95.62;100397.75;5049296;28;20028;-27
2023/01/12 08:06:13;;;;;;;14.02;8.60;;;;;;;8.60;94.52;100391.38;5047754;28;20025;-28
2023/01/12 08:08:38;;;;;;;17.38;10.13;;;;;;;8.06;97.51;100402.69;5049037;28;20028;-29
2023/01/12 08:11:05;;;;;;;13.68;9.10;;;;;;;7.54;100.00;100380.00;5048947;28;20033;-28
2023/01/12 08:13:32;;;;;;;28.53;14.17;;;;;;;7.36;100.00;100388.44;5048015;28;20032;-27
2023/01/12 08:16:03;;;;;;;18.60;10.57;;;;;;;7.36;100.00;100393.75;5049594;28;20079;-29
2023/01/12 08:18:40;;;;;;;16.15;9.75;;;;;;;7.64;100.00;100396.44;5049188;28;20094;-27
2023/01/12 08:21:11;;;;;;;16.63;10.25;;;;;;;7.54;100.00;100398.59;5047799;28;20055;-29
2023/01/12 08:23:41;;;;;;;16.13;9.45;;;;;;;7.58;100.00;100402.50;5047757;28;20037;-28
2023/01/12 08:26:14;;;;;;;15.20;9.63;;;;;;;7.44;100.00;100407.72;5049575;28;20044;-28
2023/01/12 08:28:46;;;;;;;19.17;10.45;;;;;;;7.52;100.00;100421.84;5051597;28;20037;-26
2023/01/12 08:31:14;;;;;;;16.98;9.63;;;;;;;7.31;100.00;100412.06;5051650;28;20071;-29
2023/01/12 08:33:40;;;;;;;17.08;10.45;;;;;;;7.59;100.00;100415.59;5053054;28;20108;-32
2023/01/12 08:36:09;;;;;;;15.95;8.82;;;;;;;7.64;100.00;100410.56;5052894;28;20117;-29
2023/01/12 08:38:34;;;;;;;14.75;8.63;;;;;;;7.53;100.00;100408.41;5051537;28;20029;-31
2023/01/12 08:44:02;;;;;;;12.25;8.05;;;;;;;7.62;100.00;100404.63;5053044;28;20102;-26
2023/01/12 08:46:50;;;;;;;15.70;8.13;;;;;;;7.95;100.00;100414.69;5052961;28;20032;-27
2023/01/12 08:49:18;;;;;;;13.23;7.68;;;;;;;7.69;100.00;100382.63;5051420;28;20112;-29
2023/01/12 08:51:44;;;;;;;12.50;7.40;;;;;;;8.08;99.58;100407.81;5052941;28;20175;-28
2023/01/12 08:54:11;;;;;;;12.27;7.05;;;;;;;8.05;100.00;100409.84;5051114;28;20033;-33
2023/01/12 09:22:30;;;;;;;14.23;6.47;;;;;;;7.96;97.43;100403.03;5051804;28;20051;-28
2023/01/12 09:24:55;;;;;;;15.98;8.75;;;;;;;8.00;98.73;100403.47;5048677;28;20043;-29
2023/01/12 09:27:20;;;;;;;14.75;8.38;;;;;;;8.01;97.99;100397.16;5035769;28;20057;-30
2023/01/12 09:29:46;;;;;;;11.23;6.90;;;;;;;8.17;99.36;100396.00;5035572;28;20374;-29
2023/01/12 09:32:11;;;;;;;11.20;6.68;;;;;;;8.20;97.22;100392.97;5047868;28;20076;-30
2023/01/12 09:34:36;;;;;;;16.20;8.55;;;;;;;8.21;98.77;100392.78;5041881;28;20494;-29
2023/01/12 09:37:02;;;;;;;11.05;6.32;;;;;;;8.27;96.74;100391.16;5030138;28;20091;-28
2023/01/12 09:39:27;;;;;;;12.30;6.70;;;;;;;8.08;96.60;100375.94;5031372;28;20723;-28
2023/01/12 09:47:39;;;;;;;11.52;6.75;;;;;;;8.10;96.18;100363.28;5031268;28;20052;-26
2023/01/12 09:50:15;;;;;;;10.65;6.55;;;;;;;8.60;95.49;100383.41;5029568;28;20037;-30
2023/01/12 09:52:43;;;;;;;12.02;6.68;;;;;;;8.44;95.78;100383.75;5031103;28;20044;-29
2023/01/12 09:55:17;;;;;;;12.15;7.70;;;;;;;8.37;96.29;100378.34;5030861;28;20533;-28
2023/01/12 09:57:57;;;;;;;12.77;7.38;;;;;;;8.32;95.17;100383.44;5029906;28;20086;-30
2023/01/12 10:00:23;;;;;;;10.02;5.88;;;;;;;8.51;97.20;100373.13;5029637;28;20096;-29
2023/01/12 10:02:57;;;;;;;18.40;7.72;;;;;;;8.65;97.16;100372.19;5030923;28;20029;-29
2023/01/12 10:05:43;;;;;;;10.98;6.28;;;;;;;8.78;93.42;100376.72;5029501;28;20025;-27
2023/01/12 10:08:20;;;;;;;10.40;5.78;;;;;;;8.50;93.22;100384.78;5030999;28;20031;-29
2023/01/12 10:11:24;;;;;;;12.80;6.60;;;;;;;8.58;94.66;100381.94;5029543;28;20512;-30
2023/01/12 10:14:10;;;;;;;16.02;8.18;;;;;;;8.64;96.89;100371.38;5030660;28;20293;-27
2023/01/12 10:16:45;;;;;;;11.98;7.00;;;;;;;8.64;94.92;100376.69;5031241;28;20086;-29
2023/01/12 10:19:42;;;;;;;12.50;7.32;;;;;;;8.65;94.40;100369.53;5030798;28;20458;-28
2023/01/12 10:22:38;;;;;;;12.60;7.95;;;;;;;8.64;97.02;100359.88;5030378;28;20030;-27
2023/01/12 10:25:36;;;;;;;386.25;332.00;;;;;;;8.89;96.07;100362.84;5031871;28;20041;-28
2023/01/12 10:28:14;;;;;;;;;;;;;;;9.08;93.66;100355.94;5030477;28;20069;-27
2023/01/12 10:30:40;;;;;;;20.35;17.52;;;;;;;9.14;94.33;100339.16;5029238;28;20622;-27
2023/01/12 10:33:28;;;;;;;12.05;7.10;;;;;;;9.47;91.44;100356.19;5044804;28;20112;-27
2023/01/12 10:35:59;;;;;;;11.15;6.72;;;;;;;9.37;92.15;100349.41;5049085;28;20040;-28
2023/01/12 10:38:33;;;;;;;12.73;8.43;;;;;;;9.57;90.97;100352.09;5050044;28;20032;-29
2023/01/12 10:41:19;;;;;;;10.93;6.55;;;;;;;9.36;92.30;100325.69;5048766;28;20100;-28
2023/01/12 10:44:05;;;;;;;12.30;6.82;;;;;;;9.40;92.62;100348.22;5040601;28;20032;-27
2023/01/12 10:46:33;;;;;;;15.23;7.35;;;;;;;9.54;91.54;100352.50;5028688;28;20036;-29
2023/01/12 10:49:19;;;;;;;11.63;6.60;;;;;;;9.60;91.55;100345.53;5031783;28;20021;-35
2023/01/12 10:52:05;;;;;;;11.10;6.43;;;;;;;9.59;91.42;100342.06;5041407;28;20489;-33
2023/01/12 10:54:32;;;;;;;11.00;6.57;;;;;;;9.69;90.30;100344.31;5049935;28;20071;-29
2023/01/12 10:57:07;;;;;;;11.65;6.38;;;;;;;9.39;91.60;100335.91;5048383;28;20494;-28
2023/01/12 10:59:36;;;;;;;10.57;6.10;;;;;;;9.59;91.99;100330.59;5048375;28;20020;-31
2023/01/12 11:02:07;;;;;;;13.48;7.53;;;;;;;9.44;90.29;100338.78;5048401;28;20040;-29
2023/01/12 11:04:39;;;;;;;13.07;7.03;;;;;;;9.50;91.96;100337.97;5048524;28;20025;-27
2023/01/12 11:07:12;;;;;;;12.43;6.70;;;;;;;9.59;91.55;100310.09;5049809;28;20033;-27
2023/01/12 11:09:38;;;;;;;11.85;7.22;;;;;;;9.22;90.41;100324.84;5049575;28;20035;-31
2023/01/12 11:12:16;;;;;;;12.80;7.75;;;;;;;9.65;92.41;100329.75;5049912;28;20532;-28
2023/01/12 11:14:42;;;;;;;11.23;7.10;;;;;;;9.67;91.81;100334.88;5048375;28;20029;-29
2023/01/12 11:17:32;;;;;;;11.25;6.75;;;;;;;9.56;89.33;100331.81;5049448;28;20040;-29
2023/01/12 11:20:00;;;;;;;12.90;8.43;;;;;;;9.49;91.62;100332.84;5048587;28;20029;-29
2023/01/12 11:22:31;;;;;;;;;;;;;;;9.63;88.90;100326.50;5048703;28;20545;-28
2023/01/12 11:25:03;;;;;;;12.45;6.65;;;;;;;9.44;88.96;100333.47;5036710;28;19912;-31
2023/01/12 11:28:08;;;;;;;11.57;7.07;;;;;;;9.40;89.20;100333.06;5029488;28;20053;-28
2023/01/12 11:30:44;;;;;;;13.13;7.05;;;;;;;9.24;90.09;100334.25;5028182;28;20049;-29
2023/01/12 11:33:35;;;;;;;12.52;7.68;;;;;;;9.23;91.00;100310.50;5033489;28;20588;-29
2023/01/12 11:36:08;;;;;;;12.70;7.68;;;;;;;9.32;90.88;100311.16;5027894;28;20025;-28
2023/01/12 11:38:46;;;;;;;10.35;6.93;;;;;;;9.36;90.61;100323.84;5030134;28;20057;-27
2023/01/12 11:41:21;;;;;;;10.38;6.45;;;;;;;9.44;90.47;100322.81;5037736;28;20566;-27
2023/01/12 11:44:15;;;;;;;10.85;6.30;;;;;;;9.45;90.51;100322.59;5028939;28;20402;-32
2023/01/12 11:46:45;;;;;;;26.75;16.83;;;;;;;9.59;91.14;100326.06;5027881;28;20032;-27
2023/01/12 11:49:30;;;;;;;13.27;8.02;;;;;;;9.65;91.22;100321.78;5029168;28;20038;-29
2023/01/12 11:51:57;;;;;;;14.25;7.80;;;;;;;9.74;90.86;100322.38;5030943;28;20421;-29
2023/01/12 11:54:29;;;;;;;16.38;9.52;;;;;;;9.85;90.00;100319.09;5031947;28;20021;-29
2023/01/12 11:57:16;;;;;;;12.35;6.65;;;;;;;9.90;87.21;100313.13;5045872;28;20025;-29
2023/01/12 12:00:12;;;;;;;10.95;7.43;;;;;;;9.93;89.03;100315.38;5046568;28;20140;-30
2023/01/12 12:03:04;;;;;;;20.80;11.75;;;;;;;9.79;88.75;100288.78;5048880;28;20029;-28
2023/01/12 12:05:47;;;;;;;11.10;7.18;;;;;;;9.97;87.99;100304.09;5048656;28;20025;-28
2023/01/12 12:08:45;;;;;;;11.48;6.50;;;;;;;10.30;88.10;100311.22;5047119;28;20076;-28
2023/01/12 12:11:22;;;;;;;13.40;6.90;;;;;;;10.35;89.65;100311.38;5047356;28;20021;-33
2023/01/12 12:14:18;;;;;;;11.55;6.82;;;;;;;10.36;88.94;100305.03;5048792;28;20527;-27
2023/01/12 12:16:46;;;;;;;12.57;6.80;;;;;;;10.22;88.23;100298.09;5048520;28;20029;-29
2023/01/12 12:19:21;;;;;;;12.68;7.80;;;;;;;10.49;85.18;100298.00;5034164;28;20040;-28
2023/01/12 12:21:46;;;;;;;10.68;7.00;;;;;;;10.35;88.89;100297.25;5035100;28;20041;-30
2023/01/12 12:24:46;;;;;;;11.23;7.35;;;;;;;10.56;85.45;100301.44;5028433;28;20072;-29
2023/01/12 12:27:29;;;;;;;12.32;7.45;;;;;;;10.38;85.63;100286.13;5028523;28;20122;-31
2023/01/12 12:30:22;;;;;;;13.00;7.35;;;;;;;10.31;87.51;100291.50;5028671;28;20057;-30
2023/01/12 12:33:21;;;;;;;27.92;24.92;;;;;;;10.26;88.71;100291.31;5028648;28;20038;-31